sensor_id;sensor_type;location;lat;lon;timestamp;pressure;altitude;pressure_sealevel;temperature;humidity
63006;BME280;53704;52.532;6.426;2022-12-11T00:00:04;101180.38;;;-0.82;100.00
63006;BME280;53704;52.532;6.426;2022-12-11T00:02:29;101174.13;;;-0.63;100.00
63006;BME280;53704;52.532;6.426;2022-12-11T00:04:55;101178.38;;;-0.61;100.00
63006;BME280;53704;52.532;6.426;2022-12-11T00:07:20;101174.94;;;-0.79;100.00
63006;BME280;53704;52.532;6.426;2022-12-11T00:09:46;101167.59;;;-0.74;100.00
63006;BME280;53704;52.532;6.426;2022-12-11T00:12:11;101168.00;;;-1.15;100.00
63006;BME280;53704;52.532;6.426;2022-12-11T00:14:36;101167.25;;;-0.83;100.00
63006;BME280;53704;52.532;6.426;2022-12-11T00:17:02;101161.88;;;-0.82;100.00
63006;BME280;53704;52.532;6.426;2022-12-11T00:19:28;101160.81;;;-0.95;100.00
63006;BME280;53704;52.532;6.426;2022-12-11T00:21:53;101169.66;;;-0.79;100.00
63006;BME280;53704;52.532;6.426;2022-12-11T00:24:18;101165.19;;;-0.94;100.00
63006;BME280;53704;52.532;6.426;2022-12-11T00:26:44;101160.63;;;-1.08;100.00
63006;BME280;53704;52.532;6.426;2022-12-11T00:29:10;101173.88;;;-0.92;100.00
63006;BME280;53704;52.532;6.426;2022-12-11T00:31:39;101173.56;;;-0.70;100.00
63006;BME280;53704;52.532;6.426;2022-12-11T00:34:05;101166.28;;;-0.82;100.00
63006;BME280;53704;52.532;6.426;2022-12-11T00:36:31;101162.16;;;-0.70;100.00
63006;BME280;53704;52.532;6.426;2022-12-11T00:38:56;101156.50;;;-0.96;100.00
63006;BME280;53704;52.532;6.426;2022-12-11T00:41:22;101153.44;;;-0.88;100.00
63006;BME280;53704;52.532;6.426;2022-12-11T00:43:47;101158.19;;;-0.95;100.00
63006;BME280;53704;52.532;6.426;2022-12-11T00:46:13;101159.09;;;-1.12;100.00
63006;BME280;53704;52.532;6.426;2022-12-11T00:48:38;101157.03;;;-0.74;100.00
63006;BME280;53704;52.532;6.426;2022-12-11T00:51:04;101158.03;;;-0.76;100.00
63006;BME280;53704;52.532;6.426;2022-12-11T00:53:30;101155.56;;;-0.79;100.00
63006;BME280;53704;52.532;6.426;2022-12-11T00:55:55;101153.13;;;-0.66;100.00
63006;BME280;53704;52.532;6.426;2022-12-11T00:58:21;101153.44;;;-0.88;100.00
63006;BME280;53704;52.532;6.426;2022-12-11T01:00:47;101156.34;;;-0.77;100.00
63006;BME280;53704;52.532;6.426;2022-12-11T01:03:14;101155.66;;;-0.81;100.00
63006;BME280;53704;52.532;6.426;2022-12-11T01:05:40;101156.53;;;-0.80;100.00
63006;BME280;53704;52.532;6.426;2022-12-11T01:08:05;101151.91;;;-0.77;100.00
63006;BME280;53704;52.532;6.426;2022-12-11T01:10:32;101151.75;;;-0.74;100.00
63006;BME280;53704;52.532;6.426;2022-12-11T01:13:03;101165.91;;;-0.59;100.00
63006;BME280;53704;52.532;6.426;2022-12-11T01:15:36;101153.81;;;-0.63;100.00
63006;BME280;53704;52.532;6.426;2022-12-11T01:18:03;101156.09;;;-0.73;100.00
63006;BME280;53704;52.532;6.426;2022-12-11T01:20:28;101164.69;;;-0.85;100.00
63006;BME280;53704;52.532;6.426;2022-12-11T01:22:55;101161.06;;;-0.66;100.00
63006;BME280;53704;52.532;6.426;2022-12-11T01:25:21;101167.13;;;-0.64;100.00
63006;BME280;53704;52.532;6.426;2022-12-11T01:27:52;101163.94;;;-0.87;100.00
63006;BME280;53704;52.532;6.426;2022-12-11T01:30:20;101159.84;;;-0.77;100.00
63006;BME280;53704;52.532;6.426;2022-12-11T01:32:46;101161.00;;;-0.49;100.00
63006;BME280;53704;52.532;6.426;2022-12-11T01:35:12;101169.69;;;-0.63;100.00
63006;BME280;53704;52.532;6.426;2022-12-11T01:37:38;101163.50;;;-0.79;100.00
63006;BME280;53704;52.532;6.426;2022-12-11T01:40:04;101155.53;;;-0.46;100.00
63006;BME280;53704;52.532;6.426;2022-12-11T01:42:31;101155.53;;;-0.46;100.00
63006;BME280;53704;52.532;6.426;2022-12-11T01:47:55;101159.63;;;-0.56;100.00
63006;BME280;53704;52.532;6.426;2022-12-11T01:50:21;101155.72;;;-0.49;100.00
63006;BME280;53704;52.532;6.426;2022-12-11T01:52:47;101156.38;;;-0.29;100.00
63006;BME280;53704;52.532;6.426;2022-12-11T01:55:14;101155.97;;;-0.22;100.00
63006;BME280;53704;52.532;6.426;2022-12-11T01:57:41;101153.06;;;-0.49;100.00
63006;BME280;53704;52.532;6.426;2022-12-11T02:00:08;101153.22;;;-0.36;100.00
63006;BME280;53704;52.532;6.426;2022-12-11T02:02:34;101156.63;;;-0.50;100.00
63006;BME280;53704;52.532;6.426;2022-12-11T02:05:05;101151.75;;;-0.58;100.00
63006;BME280;53704;52.532;6.426;2022-12-11T02:07:41;101144.09;;;-0.46;100.00
63006;BME280;53704;52.532;6.426;2022-12-11T02:10:09;101143.59;;;-0.53;100.00
63006;BME280;53704;52.532;6.426;2022-12-11T02:13:06;101141.00;;;-0.55;100.00
63006;BME280;53704;52.532;6.426;2022-12-11T02:15:34;101144.31;;;-0.67;100.00
63006;BME280;53704;52.532;6.426;2022-12-11T02:18:09;101143.97;;;-0.93;100.00
63006;BME280;53704;52.532;6.426;2022-12-11T02:20:44;101141.25;;;-0.75;100.00
63006;BME280;53704;52.532;6.426;2022-12-11T02:24:00;101143.06;;;-0.60;100.00
63006;BME280;53704;52.532;6.426;2022-12-11T02:29:29;101135.47;;;-0.34;100.00
63006;BME280;53704;52.532;6.426;2022-12-11T02:32:07;101134.03;;;-1.05;100.00
63006;BME280;53704;52.532;6.426;2022-12-11T02:34:44;101137.19;;;-0.65;100.00
63006;BME280;53704;52.532;6.426;2022-12-11T02:37:18;101138.47;;;-0.56;100.00
63006;BME280;53704;52.532;6.426;2022-12-11T02:39:46;101132.81;;;-0.34;100.00
63006;BME280;53704;52.532;6.426;2022-12-11T02:42:14;101135.38;;;-0.32;100.00
63006;BME280;53704;52.532;6.426;2022-12-11T02:44:43;101137.34;;;-0.36;100.00
63006;BME280;53704;52.532;6.426;2022-12-11T02:47:11;101142.03;;;-0.57;100.00
63006;BME280;53704;52.532;6.426;2022-12-11T02:49:42;101137.44;;;-0.69;100.00
63006;BME280;53704;52.532;6.426;2022-12-11T02:52:11;101138.63;;;-0.59;100.00
63006;BME280;53704;52.532;6.426;2022-12-11T02:54:40;101129.75;;;-0.42;100.00
63006;BME280;53704;52.532;6.426;2022-12-11T02:57:11;101134.81;;;-0.38;100.00
63006;BME280;53704;52.532;6.426;2022-12-11T02:59:40;101136.06;;;-0.45;100.00
63006;BME280;53704;52.532;6.426;2022-12-11T03:02:07;101130.34;;;-0.53;100.00
63006;BME280;53704;52.532;6.426;2022-12-11T03:04:34;101128.72;;;-0.56;100.00
63006;BME280;53704;52.532;6.426;2022-12-11T03:07:10;101116.28;;;-0.38;100.00
63006;BME280;53704;52.532;6.426;2022-12-11T03:09:41;101128.88;;;-0.59;100.00
63006;BME280;53704;52.532;6.426;2022-12-11T03:12:08;101118.69;;;-0.49;100.00
63006;BME280;53704;52.532;6.426;2022-12-11T03:14:37;101120.28;;;-0.46;100.00
63006;BME280;53704;52.532;6.426;2022-12-11T03:17:22;101117.97;;;-0.68;100.00
63006;BME280;53704;52.532;6.426;2022-12-11T03:19:56;101112.84;;;-0.40;100.00
63006;BME280;53704;52.532;6.426;2022-12-11T03:22:39;101119.19;;;-0.42;100.00
63006;BME280;53704;52.532;6.426;2022-12-11T03:25:11;101109.53;;;-0.27;100.00
63006;BME280;53704;52.532;6.426;2022-12-11T03:30:12;101113.38;;;-0.33;100.00
63006;BME280;53704;52.532;6.426;2022-12-11T03:32:43;101107.75;;;-0.27;100.00
63006;BME280;53704;52.532;6.426;2022-12-11T03:35:50;101111.50;;;-0.47;100.00
63006;BME280;53704;52.532;6.426;2022-12-11T03:38:21;101108.41;;;-0.23;100.00
63006;BME280;53704;52.532;6.426;2022-12-11T03:40:51;101114.91;;;-0.45;100.00
63006;BME280;53704;52.532;6.426;2022-12-11T03:43:20;101106.19;;;-0.31;100.00
63006;BME280;53704;52.532;6.426;2022-12-11T03:45:50;101109.53;;;-0.27;100.00
63006;BME280;53704;52.532;6.426;2022-12-11T03:48:17;101113.72;;;-0.39;100.00
63006;BME280;53704;52.532;6.426;2022-12-11T03:50:45;101103.91;;;-0.85;100.00
63006;BME280;53704;52.532;6.426;2022-12-11T03:53:12;101115.84;;;-0.62;100.00
63006;BME280;53704;52.532;6.426;2022-12-11T03:55:38;101117.38;;;-0.42;100.00
63006;BME280;53704;52.532;6.426;2022-12-11T03:58:04;101117.28;;;-0.40;100.00
63006;BME280;53704;52.532;6.426;2022-12-11T04:00:30;101120.00;;;-0.26;100.00
63006;BME280;53704;52.532;6.426;2022-12-11T04:02:56;101127.44;;;-0.32;100.00
63006;BME280;53704;52.532;6.426;2022-12-11T04:05:47;101117.88;;;-0.19;100.00
63006;BME280;53704;52.532;6.426;2022-12-11T04:08:14;101120.53;;;-0.51;100.00
63006;BME280;53704;52.532;6.426;2022-12-11T04:10:40;101122.22;;;-0.18;100.00
63006;BME280;53704;52.532;6.426;2022-12-11T04:13:06;101119.34;;;-0.45;100.00
63006;BME280;53704;52.532;6.426;2022-12-11T04:15:33;101130.84;;;-0.30;100.00
63006;BME280;53704;52.532;6.426;2022-12-11T04:17:58;101135.03;;;-0.26;100.00
63006;BME280;53704;52.532;6.426;2022-12-11T04:20:42;101124.63;;;-0.13;100.00
63006;BME280;53704;52.532;6.426;2022-12-11T04:23:26;101131.28;;;-0.38;100.00
63006;BME280;53704;52.532;6.426;2022-12-11T04:26:14;101124.38;;;-0.25;100.00
63006;BME280;53704;52.532;6.426;2022-12-11T04:28:40;101124.47;;;-0.26;100.00
63006;BME280;53704;52.532;6.426;2022-12-11T04:31:13;101127.72;;;-0.53;100.00
63006;BME280;53704;52.532;6.426;2022-12-11T04:33:39;101133.41;;;-0.61;100.00
63006;BME280;53704;52.532;6.426;2022-12-11T04:36:05;101125.31;;;-0.42;100.00
63006;BME280;53704;52.532;6.426;2022-12-11T04:38:30;101123.69;;;-0.60;100.00
63006;BME280;53704;52.532;6.426;2022-12-11T04:41:09;101118.06;;;-0.38;100.00
63006;BME280;53704;52.532;6.426;2022-12-11T04:43:35;101109.44;;;-0.42;100.00
63006;BME280;53704;52.532;6.426;2022-12-11T04:46:07;101109.56;;;-0.13;100.00
63006;BME280;53704;52.532;6.426;2022-12-11T04:48:33;101100.06;;;-0.31;100.00
63006;BME280;53704;52.532;6.426;2022-12-11T04:50:58;101106.00;;;-0.12;100.00
63006;BME280;53704;52.532;6.426;2022-12-11T04:53:24;101094.19;;;-0.68;100.00
63006;BME280;53704;52.532;6.426;2022-12-11T04:55:50;101090.84;;;-0.56;100.00
63006;BME280;53704;52.532;6.426;2022-12-11T04:58:15;101084.88;;;-0.44;100.00
63006;BME280;53704;52.532;6.426;2022-12-11T05:00:41;101083.25;;;-0.46;100.00
63006;BME280;53704;52.532;6.426;2022-12-11T05:03:07;101086.22;;;-0.37;100.00
63006;BME280;53704;52.532;6.426;2022-12-11T05:05:32;101079.06;;;-0.34;100.00
63006;BME280;53704;52.532;6.426;2022-12-11T05:07:58;101078.56;;;-0.25;100.00
63006;BME280;53704;52.532;6.426;2022-12-11T05:10:23;101075.81;;;-0.40;100.00
63006;BME280;53704;52.532;6.426;2022-12-11T05:12:48;101078.59;;;-0.11;100.00
63006;BME280;53704;52.532;6.426;2022-12-11T05:15:14;101083.16;;;0.02;100.00
63006;BME280;53704;52.532;6.426;2022-12-11T05:17:39;101085.81;;;0.02;100.00
63006;BME280;53704;52.532;6.426;2022-12-11T05:20:05;101085.34;;;-0.21;100.00
63006;BME280;53704;52.532;6.426;2022-12-11T05:22:31;101081.56;;;-0.01;100.00
63006;BME280;53704;52.532;6.426;2022-12-11T05:24:56;101079.09;;;-0.04;100.00
63006;BME280;53704;52.532;6.426;2022-12-11T05:27:22;101078.97;;;-0.17;100.00
63006;BME280;53704;52.532;6.426;2022-12-11T05:29:47;101074.13;;;-0.41;100.00
63006;BME280;53704;52.532;6.426;2022-12-11T05:32:13;101074.91;;;-0.08;100.00
63006;BME280;53704;52.532;6.426;2022-12-11T05:34:38;101075.34;;;-0.16;100.00
63006;BME280;53704;52.532;6.426;2022-12-11T05:37:04;101074.97;;;-0.40;100.00
63006;BME280;53704;52.532;6.426;2022-12-11T05:39:29;101076.28;;;-0.63;100.00
63006;BME280;53704;52.532;6.426;2022-12-11T05:41:55;101074.81;;;-0.37;100.00
63006;BME280;53704;52.532;6.426;2022-12-11T05:44:20;101073.53;;;-0.46;100.00
63006;BME280;53704;52.532;6.426;2022-12-11T05:46:46;101080.59;;;-0.46;100.00
63006;BME280;53704;52.532;6.426;2022-12-11T05:49:12;101088.09;;;-0.23;100.00
63006;BME280;53704;52.532;6.426;2022-12-11T05:51:37;101079.41;;;-0.41;100.00
63006;BME280;53704;52.532;6.426;2022-12-11T05:54:03;101073.53;;;-0.46;100.00
63006;BME280;53704;52.532;6.426;2022-12-11T05:56:31;101076.59;;;-0.38;100.00
63006;BME280;53704;52.532;6.426;2022-12-11T05:58:58;101081.94;;;-0.23;100.00
63006;BME280;53704;52.532;6.426;2022-12-11T06:01:26;101076.09;;;-0.44;100.00
63006;BME280;53704;52.532;6.426;2022-12-11T06:03:53;101077.59;;;-0.24;100.00
63006;BME280;53704;52.532;6.426;2022-12-11T06:06:19;101081.38;;;0.02;100.00
63006;BME280;53704;52.532;6.426;2022-12-11T06:08:44;101079.53;;;-0.12;100.00
63006;BME280;53704;52.532;6.426;2022-12-11T06:11:13;101088.53;;;-0.30;100.00
63006;BME280;53704;52.532;6.426;2022-12-11T06:13:39;101074.16;;;-0.57;100.00
63006;BME280;53704;52.532;6.426;2022-12-11T06:16:05;101076.78;;;-0.41;100.00
63006;BME280;53704;52.532;6.426;2022-12-11T06:18:35;101081.28;;;-0.27;100.00
63006;BME280;53704;52.532;6.426;2022-12-11T06:21:01;101080.41;;;-0.27;100.00
63006;BME280;53704;52.532;6.426;2022-12-11T06:23:26;101077.44;;;-0.37;100.00
63006;BME280;53704;52.532;6.426;2022-12-11T06:25:52;101075.91;;;-0.25;100.00
63006;BME280;53704;52.532;6.426;2022-12-11T06:28:17;101076.50;;;-0.20;100.00
63006;BME280;53704;52.532;6.426;2022-12-11T06:30:42;101070.69;;;-0.27;100.00
63006;BME280;53704;52.532;6.426;2022-12-11T06:33:09;101074.38;;;-0.29;100.00
63006;BME280;53704;52.532;6.426;2022-12-11T06:35:35;101070.00;;;-0.30;100.00
63006;BME280;53704;52.532;6.426;2022-12-11T06:38:00;101075.53;;;-0.19;100.00
63006;BME280;53704;52.532;6.426;2022-12-11T06:40:26;101073.97;;;-0.38;100.00
63006;BME280;53704;52.532;6.426;2022-12-11T06:42:53;101072.75;;;-0.48;100.00
63006;BME280;53704;52.532;6.426;2022-12-11T06:45:18;101078.38;;;-0.22;100.00
63006;BME280;53704;52.532;6.426;2022-12-11T06:47:44;101078.34;;;-0.06;100.00
63006;BME280;53704;52.532;6.426;2022-12-11T06:50:09;101065.69;;;-0.31;100.00
63006;BME280;53704;52.532;6.426;2022-12-11T06:52:35;101076.50;;;-0.36;100.00
63006;BME280;53704;52.532;6.426;2022-12-11T06:55:00;101079.59;;;-0.60;100.00
63006;BME280;53704;52.532;6.426;2022-12-11T06:57:25;101079.16;;;-0.36;100.00
63006;BME280;53704;52.532;6.426;2022-12-11T06:59:51;101075.06;;;-0.42;100.00
63006;BME280;53704;52.532;6.426;2022-12-11T07:02:18;101074.47;;;-0.47;100.00
63006;BME280;53704;52.532;6.426;2022-12-11T07:04:44;101080.41;;;-0.27;100.00
63006;BME280;53704;52.532;6.426;2022-12-11T07:07:10;101077.34;;;-0.20;100.00
63006;BME280;53704;52.532;6.426;2022-12-11T07:09:37;101072.31;;;-0.24;100.00
63006;BME280;53704;52.532;6.426;2022-12-11T07:12:04;101070.63;;;-0.25;100.00
63006;BME280;53704;52.532;6.426;2022-12-11T07:14:30;101069.59;;;-0.39;100.00
63006;BME280;53704;52.532;6.426;2022-12-11T07:16:56;101071.88;;;-0.16;100.00
63006;BME280;53704;52.532;6.426;2022-12-11T07:19:22;101082.44;;;-0.16;100.00
63006;BME280;53704;52.532;6.426;2022-12-11T07:21:47;101079.13;;;-0.20;100.00
63006;BME280;53704;52.532;6.426;2022-12-11T07:24:13;101074.56;;;-0.02;100.00
63006;BME280;53704;52.532;6.426;2022-12-11T07:26:38;101092.16;;;-0.01;100.00
63006;BME280;53704;52.532;6.426;2022-12-11T07:29:04;101078.44;;;-0.08;100.00
63006;BME280;53704;52.532;6.426;2022-12-11T07:31:29;101081.25;;;-0.11;100.00
63006;BME280;53704;52.532;6.426;2022-12-11T07:34:00;101084.84;;;-0.12;100.00
63006;BME280;53704;52.532;6.426;2022-12-11T07:36:27;101082.88;;;-0.24;100.00
63006;BME280;53704;52.532;6.426;2022-12-11T07:38:53;101090.66;;;-0.21;100.00
63006;BME280;53704;52.532;6.426;2022-12-11T07:41:19;101092.88;;;-0.29;100.00
63006;BME280;53704;52.532;6.426;2022-12-11T07:43:45;101093.31;;;-0.37;100.00
63006;BME280;53704;52.532;6.426;2022-12-11T07:46:14;101098.19;;;-0.29;100.00
63006;BME280;53704;52.532;6.426;2022-12-11T07:48:43;101099.31;;;0.13;100.00
63006;BME280;53704;52.532;6.426;2022-12-11T07:51:13;101099.66;;;0.07;100.00
63006;BME280;53704;52.532;6.426;2022-12-11T07:53:43;101104.03;;;0.22;100.00
63006;BME280;53704;52.532;6.426;2022-12-11T07:56:09;101099.16;;;0.00;100.00
63006;BME280;53704;52.532;6.426;2022-12-11T07:58:34;101097.63;;;-0.04;100.00
63006;BME280;53704;52.532;6.426;2022-12-11T08:01:01;101094.31;;;-0.08;100.00
63006;BME280;53704;52.532;6.426;2022-12-11T08:03:26;101100.72;;;-0.12;100.00
63006;BME280;53704;52.532;6.426;2022-12-11T08:05:52;101105.69;;;-0.22;100.00
63006;BME280;53704;52.532;6.426;2022-12-11T08:08:18;101106.75;;;-0.10;100.00
63006;BME280;53704;52.532;6.426;2022-12-11T08:10:44;101110.06;;;0.10;100.00
63006;BME280;53704;52.532;6.426;2022-12-11T08:13:10;101108.47;;;-0.09;100.00
63006;BME280;53704;52.532;6.426;2022-12-11T08:15:35;101110.09;;;-0.06;100.00
63006;BME280;53704;52.532;6.426;2022-12-11T08:18:01;101107.91;;;-0.14;100.00
63006;BME280;53704;52.532;6.426;2022-12-11T08:20:26;101106.22;;;-0.01;100.00
63006;BME280;53704;52.532;6.426;2022-12-11T08:22:52;101096.03;;;0.08;100.00
63006;BME280;53704;52.532;6.426;2022-12-11T08:25:18;101093.22;;;-0.20;100.00
63006;BME280;53704;52.532;6.426;2022-12-11T08:27:43;101104.06;;;0.06;100.00
63006;BME280;53704;52.532;6.426;2022-12-11T08:30:09;101097.19;;;0.04;100.00
63006;BME280;53704;52.532;6.426;2022-12-11T08:32:34;101096.53;;;-0.16;100.00
63006;BME280;53704;52.532;6.426;2022-12-11T08:35:00;101096.19;;;-0.10;100.00
63006;BME280;53704;52.532;6.426;2022-12-11T08:37:25;101096.16;;;-0.56;100.00
63006;BME280;53704;52.532;6.426;2022-12-11T08:39:51;101092.19;;;-0.17;100.00
63006;BME280;53704;52.532;6.426;2022-12-11T08:42:19;101087.13;;;-0.06;100.00
63006;BME280;53704;52.532;6.426;2022-12-11T08:44:44;101090.97;;;-0.11;100.00
63006;BME280;53704;52.532;6.426;2022-12-11T08:47:10;101096.22;;;0.05;100.00
63006;BME280;53704;52.532;6.426;2022-12-11T08:49:35;101093.03;;;0.14;100.00
63006;BME280;53704;52.532;6.426;2022-12-11T08:52:04;101095.59;;;0.15;100.00
63006;BME280;53704;52.532;6.426;2022-12-11T08:54:30;101109.53;;;0.03;100.00
63006;BME280;53704;52.532;6.426;2022-12-11T08:56:55;101105.47;;;-0.03;100.00
63006;BME280;53704;52.532;6.426;2022-12-11T08:59:21;101097.84;;;0.38;100.00
63006;BME280;53704;52.532;6.426;2022-12-11T09:01:46;101100.00;;;0.01;100.00
63006;BME280;53704;52.532;6.426;2022-12-11T09:04:12;101102.31;;;0.07;100.00
63006;BME280;53704;52.532;6.426;2022-12-11T09:06:37;101092.81;;;0.03;100.00
63006;BME280;53704;52.532;6.426;2022-12-11T09:09:03;101097.44;;;-0.01;100.00
63006;BME280;53704;52.532;6.426;2022-12-11T09:11:31;101089.38;;;0.16;100.00
63006;BME280;53704;52.532;6.426;2022-12-11T09:13:57;101095.28;;;0.06;100.00
63006;BME280;53704;52.532;6.426;2022-12-11T09:16:24;101100.38;;;-0.06;100.00
63006;BME280;53704;52.532;6.426;2022-12-11T09:18:52;101093.53;;;-0.10;100.00
63006;BME280;53704;52.532;6.426;2022-12-11T09:21:21;101092.47;;;0.09;100.00
63006;BME280;53704;52.532;6.426;2022-12-11T09:23:47;101088.59;;;-0.16;100.00
63006;BME280;53704;52.532;6.426;2022-12-11T09:26:15;101095.47;;;0.03;100.00
63006;BME280;53704;52.532;6.426;2022-12-11T09:28:41;101092.28;;;0.12;100.00
63006;BME280;53704;52.532;6.426;2022-12-11T09:33:38;101093.13;;;0.12;100.00
63006;BME280;53704;52.532;6.426;2022-12-11T09:36:04;101090.75;;;0.08;100.00
63006;BME280;53704;52.532;6.426;2022-12-11T09:38:30;101089.69;;;-0.04;100.00
63006;BME280;53704;52.532;6.426;2022-12-11T09:40:56;101090.69;;;0.24;100.00
63006;BME280;53704;52.532;6.426;2022-12-11T09:45:59;101089.69;;;0.26;100.00
63006;BME280;53704;52.532;6.426;2022-12-11T09:48:25;101089.41;;;0.31;100.00
63006;BME280;53704;52.532;6.426;2022-12-11T09:50:52;101083.72;;;0.23;100.00
63006;BME280;53704;52.532;6.426;2022-12-11T09:53:28;101084.16;;;0.15;100.00
63006;BME280;53704;52.532;6.426;2022-12-11T09:56:01;101086.94;;;0.28;100.00
63006;BME280;53704;52.532;6.426;2022-12-11T09:58:37;101089.91;;;0.07;100.00
63006;BME280;53704;52.532;6.426;2022-12-11T10:01:21;101079.91;;;0.12;100.00
63006;BME280;53704;52.532;6.426;2022-12-11T10:04:21;101084.22;;;-0.01;100.00
63006;BME280;53704;52.532;6.426;2022-12-11T10:07:11;101075.03;;;0.21;100.00
63006;BME280;53704;52.532;6.426;2022-12-11T10:09:58;101080.63;;;0.00;100.00
63006;BME280;53704;52.532;6.426;2022-12-11T10:12:37;101081.16;;;-0.09;100.00
63006;BME280;53704;52.532;6.426;2022-12-11T10:15:38;101082.63;;;0.11;100.00
63006;BME280;53704;52.532;6.426;2022-12-11T10:18:10;101086.69;;;0.02;100.00
63006;BME280;53704;52.532;6.426;2022-12-11T10:20:37;101082.44;;;0.14;100.00
63006;BME280;53704;52.532;6.426;2022-12-11T10:23:14;101087.31;;;0.36;100.00
63006;BME280;53704;52.532;6.426;2022-12-11T10:25:48;101086.28;;;0.24;100.00
63006;BME280;53704;52.532;6.426;2022-12-11T10:28:17;101079.63;;;0.17;100.00
63006;BME280;53704;52.532;6.426;2022-12-11T10:33:44;101092.19;;;0.13;100.00
63006;BME280;53704;52.532;6.426;2022-12-11T10:36:17;101087.94;;;0.41;100.00
63006;BME280;53704;52.532;6.426;2022-12-11T10:38:45;101088.47;;;0.32;100.00
63006;BME280;53704;52.532;6.426;2022-12-11T10:41:18;101075.63;;;0.40;100.00
63006;BME280;53704;52.532;6.426;2022-12-11T10:43:47;101083.38;;;-0.02;100.00
63006;BME280;53704;52.532;6.426;2022-12-11T10:46:24;101087.59;;;0.31;100.00
63006;BME280;53704;52.532;6.426;2022-12-11T10:48:59;101080.50;;;0.17;100.00
63006;BME280;53704;52.532;6.426;2022-12-11T10:54:04;101072.84;;;0.27;100.00
63006;BME280;53704;52.532;6.426;2022-12-11T10:56:31;101073.78;;;0.26;100.00
63006;BME280;53704;52.532;6.426;2022-12-11T10:58:59;101069.44;;;0.25;100.00
63006;BME280;53704;52.532;6.426;2022-12-11T11:01:30;101066.56;;;0.14;100.00
63006;BME280;53704;52.532;6.426;2022-12-11T11:04:03;101060.66;;;0.39;100.00
63006;BME280;53704;52.532;6.426;2022-12-11T11:06:31;101068.50;;;0.26;100.00
63006;BME280;53704;52.532;6.426;2022-12-11T11:08:59;101062.81;;;0.18;100.00
63006;BME280;53704;52.532;6.426;2022-12-11T11:11:36;101070.78;;;0.47;100.00
63006;BME280;53704;52.532;6.426;2022-12-11T11:14:21;101067.03;;;0.51;100.00
63006;BME280;53704;52.532;6.426;2022-12-11T11:16:51;101063.59;;;0.34;100.00
63006;BME280;53704;52.532;6.426;2022-12-11T11:21:59;101057.91;;;0.41;100.00
63006;BME280;53704;52.532;6.426;2022-12-11T11:24:37;101053.59;;;0.40;100.00
63006;BME280;53704;52.532;6.426;2022-12-11T11:27:37;101058.75;;;0.27;100.00
63006;BME280;53704;52.532;6.426;2022-12-11T11:30:12;101054.63;;;0.51;100.00
63006;BME280;53704;52.532;6.426;2022-12-11T11:32:41;101057.03;;;0.11;100.00
63006;BME280;53704;52.532;6.426;2022-12-11T11:37:36;101054.69;;;0.21;100.00
63006;BME280;53704;52.532;6.426;2022-12-11T11:40:27;101053.97;;;0.48;100.00
63006;BME280;53704;52.532;6.426;2022-12-11T11:46:07;101049.78;;;0.29;100.00
63006;BME280;53704;52.532;6.426;2022-12-11T11:48:36;101053.53;;;0.25;100.00
63006;BME280;53704;52.532;6.426;2022-12-11T11:51:22;101056.69;;;0.02;100.00
63006;BME280;53704;52.532;6.426;2022-12-11T11:53:50;101051.28;;;-0.11;100.00
63006;BME280;53704;52.532;6.426;2022-12-11T11:56:27;101052.16;;;-0.11;100.00
63006;BME280;53704;52.532;6.426;2022-12-11T11:59:11;101057.47;;;-0.27;100.00
63006;BME280;53704;52.532;6.426;2022-12-11T12:01:40;101059.56;;;-0.17;100.00
63006;BME280;53704;52.532;6.426;2022-12-11T12:04:05;101051.53;;;-0.16;100.00
63006;BME280;53704;52.532;6.426;2022-12-11T12:12:13;101046.50;;;-0.21;100.00
63006;BME280;53704;52.532;6.426;2022-12-11T12:18:07;101042.00;;;-0.19;100.00
63006;BME280;53704;52.532;6.426;2022-12-11T12:20:48;101040.50;;;-0.08;100.00
63006;BME280;53704;52.532;6.426;2022-12-11T12:26:16;101037.88;;;0.37;100.00
63006;BME280;53704;52.532;6.426;2022-12-11T12:39:28;101040.41;;;-0.07;100.00
63006;BME280;53704;52.532;6.426;2022-12-11T12:42:23;101041.41;;;0.07;100.00
63006;BME280;53704;52.532;6.426;2022-12-11T12:44:57;101036.00;;;-0.06;100.00
63006;BME280;53704;52.532;6.426;2022-12-11T12:47:25;101044.72;;;-0.20;100.00
63006;BME280;53704;52.532;6.426;2022-12-11T12:49:53;101037.78;;;-0.07;100.00
63006;BME280;53704;52.532;6.426;2022-12-11T12:54:52;101027.19;;;0.38;100.00
63006;BME280;53704;52.532;6.426;2022-12-11T12:57:38;101019.63;;;0.61;100.00
63006;BME280;53704;52.532;6.426;2022-12-11T13:00:07;101023.13;;;0.61;100.00
63006;BME280;53704;52.532;6.426;2022-12-11T13:02:54;101023.31;;;0.58;100.00
63006;BME280;53704;52.532;6.426;2022-12-11T13:05:28;101019.81;;;0.58;100.00
63006;BME280;53704;52.532;6.426;2022-12-11T13:07:57;101023.03;;;0.48;100.00
63006;BME280;53704;52.532;6.426;2022-12-11T13:10:30;101025.56;;;0.50;100.00
63006;BME280;53704;52.532;6.426;2022-12-11T13:12:56;101021.91;;;0.38;100.00
63006;BME280;53704;52.532;6.426;2022-12-11T13:18:01;101025.94;;;0.29;100.00
63006;BME280;53704;52.532;6.426;2022-12-11T13:20:30;101027.06;;;0.25;100.00
63006;BME280;53704;52.532;6.426;2022-12-11T13:25:30;101021.91;;;0.08;100.00
63006;BME280;53704;52.532;6.426;2022-12-11T13:28:06;101018.28;;;0.39;100.00
63006;BME280;53704;52.532;6.426;2022-12-11T13:30:32;101020.69;;;-0.01;100.00
63006;BME280;53704;52.532;6.426;2022-12-11T13:33:16;101031.19;;;-0.30;100.00
63006;BME280;53704;52.532;6.426;2022-12-11T13:35:43;101024.53;;;0.38;100.00
63006;BME280;53704;52.532;6.426;2022-12-11T13:38:16;101032.66;;;-0.10;100.00
63006;BME280;53704;52.532;6.426;2022-12-11T13:40:43;101025.56;;;0.21;100.00
63006;BME280;53704;52.532;6.426;2022-12-11T13:43:22;101025.47;;;0.37;100.00
63006;BME280;53704;52.532;6.426;2022-12-11T13:45:56;101029.84;;;0.38;100.00
63006;BME280;53704;52.532;6.426;2022-12-11T13:48:27;101026.22;;;0.53;100.00
63006;BME280;53704;52.532;6.426;2022-12-11T13:50:55;101028.88;;;0.25;100.00